Time;durP1;ratioP1;P1;durP2;ratioP2;P2;SDS_P1;SDS_P2;PMS_P1;PMS_P2;Temp;Humidity;BMP_temperature;BMP_pressure;BME280_temperature;BME280_humidity;BME280_pressure;Samples;Min_cycle;Max_cycle;Signal;HPM_P1;HPM_P2
2022/04/07 00:02:08;;;;;;;10.68;6.20;;;;;;;7.07;78.59;98107.25;5093926;28;20051;-70
2022/04/07 00:04:39;;;;;;;6.50;4.40;;;;;;;7.12;78.52;98110.56;5093901;28;20036;-70
2022/04/07 00:07:08;;;;;;;12.95;6.10;;;;;;;6.93;78.50;98116.72;5093386;28;20052;-70
2022/04/07 00:09:37;;;;;;;13.23;7.15;;;;;;;6.93;78.79;98109.13;5093824;28;20036;-70
2022/04/07 00:12:06;;;;;;;11.20;6.23;;;;;;;6.84;78.15;98106.69;5093816;28;20037;-70
2022/04/07 00:14:35;;;;;;;11.02;6.28;;;;;;;6.97;78.64;98101.44;5093988;28;20058;-70
2022/04/07 00:17:04;;;;;;;10.00;4.55;;;;;;;6.92;78.12;98099.81;5075971;28;20089;-70
2022/04/07 00:19:34;;;;;;;10.77;5.68;;;;;;;6.91;78.36;98090.53;5093951;28;20126;-70
2022/04/07 00:22:05;;;;;;;11.68;6.20;;;;;;;6.90;78.28;98083.78;5093502;28;20481;-70
2022/04/07 00:24:34;;;;;;;12.50;6.07;;;;;;;6.69;78.47;98067.94;5093707;28;20051;-70
2022/04/07 00:27:03;;;;;;;12.30;6.03;;;;;;;6.80;78.24;98077.13;5093946;28;20040;-70
2022/04/07 00:29:33;;;;;;;13.10;6.20;;;;;;;6.83;78.67;98072.88;5093583;28;20569;-71
2022/04/07 00:32:05;;;;;;;10.50;5.38;;;;;;;6.75;78.41;98074.66;5093589;28;20051;-69
2022/04/07 00:34:34;;;;;;;12.68;6.68;;;;;;;6.63;78.29;98069.72;5094467;28;20052;-70
2022/04/07 00:37:05;;;;;;;13.03;6.07;;;;;;;6.52;78.86;98056.34;5093520;28;20044;-70
2022/04/07 00:39:34;;;;;;;13.30;6.68;;;;;;;6.31;78.32;98056.56;5093365;28;20055;-70
2022/04/07 00:42:03;;;;;;;9.93;4.93;;;;;;;6.33;78.99;98060.78;5093540;28;20478;-70
2022/04/07 00:44:32;;;;;;;10.25;5.57;;;;;;;6.31;79.69;98052.31;5093750;28;20036;-70
2022/04/07 00:47:01;;;;;;;9.98;4.43;;;;;;;6.03;78.97;98059.34;5094071;28;20377;-70
2022/04/07 00:49:30;;;;;;;10.27;5.20;;;;;;;6.03;79.34;98066.09;5093625;28;20551;-70
2022/04/07 00:51:59;;;;;;;7.75;4.43;;;;;;;6.00;80.44;98058.53;5093754;28;20048;-70
2022/04/07 00:54:30;;;;;;;12.15;6.13;;;;;;;5.73;80.24;98067.19;5093945;28;20581;-70
2022/04/07 00:57:01;;;;;;;12.18;5.95;;;;;;;5.82;80.45;98061.19;5093397;28;20062;-70
2022/04/07 00:59:35;;;;;;;12.18;6.18;;;;;;;6.05;80.46;98044.13;5093742;28;20047;-70
2022/04/07 01:02:05;;;;;;;14.63;7.13;;;;;;;5.96;80.36;98055.19;5093380;28;20048;-70
2022/04/07 01:04:34;;;;;;;12.02;6.80;;;;;;;6.04;80.64;98047.53;5093663;28;20056;-70
2022/04/07 01:07:03;;;;;;;9.05;5.28;;;;;;;6.00;80.53;98051.78;5093279;28;20040;-70
2022/04/07 01:09:34;;;;;;;12.90;6.97;;;;;;;5.99;80.83;98046.75;5093195;28;20048;-70
2022/04/07 01:12:03;;;;;;;12.98;5.72;;;;;;;6.05;80.17;98044.13;5093445;28;20044;-70
2022/04/07 01:14:32;;;;;;;12.50;6.10;;;;;;;5.69;79.89;98044.41;5093182;28;20062;-70
2022/04/07 01:17:01;;;;;;;11.77;6.13;;;;;;;5.81;80.45;98045.16;5075200;28;20037;-70
2022/04/07 01:19:30;;;;;;;12.63;6.43;;;;;;;6.12;80.62;98030.56;5094821;28;20066;-70
2022/04/07 01:21:59;;;;;;;12.35;6.50;;;;;;;6.09;80.22;98033.16;5096669;28;20565;-70
2022/04/07 01:24:32;;;;;;;13.73;6.17;;;;;;;6.21;80.86;98035.56;5096944;28;20051;-70
2022/04/07 01:27:03;;;;;;;11.63;5.57;;;;;;;6.33;80.62;98034.59;5097403;28;20402;-71
2022/04/07 01:29:32;;;;;;;13.60;5.65;;;;;;;6.23;80.09;98038.91;5097087;28;20079;-70
2022/04/07 01:32:09;;;;;;;11.93;6.30;;;;;;;6.15;80.23;98040.69;5096733;28;20047;-70
2022/04/07 01:34:39;;;;;;;10.82;5.10;;;;;;;6.24;80.20;98049.91;5078901;28;20062;-71
2022/04/07 01:37:09;;;;;;;10.02;5.28;;;;;;;5.96;79.87;98056.88;5096739;28;20044;-70
2022/04/07 01:39:42;;;;;;;11.95;5.50;;;;;;;5.71;80.24;98063.00;5096611;28;20040;-70
2022/04/07 01:42:14;;;;;;;14.20;5.97;;;;;;;5.84;80.17;98069.63;5096490;28;20512;-70
2022/04/07 01:44:49;;;;;;;10.88;5.70;;;;;;;5.63;80.29;98075.69;5096526;28;20048;-70
2022/04/07 01:47:21;;;;;;;11.63;5.82;;;;;;;5.70;80.92;98066.34;5096789;28;20070;-70
2022/04/07 01:49:56;;;;;;;10.00;5.38;;;;;;;5.70;80.75;98066.34;5096753;28;20044;-70
2022/04/07 01:52:25;;;;;;;9.23;5.40;;;;;;;5.60;80.86;98044.50;5096364;28;20044;-70
2022/04/07 01:54:56;;;;;;;10.27;4.93;;;;;;;5.39;80.13;98069.13;5096365;28;20051;-70
2022/04/07 01:57:26;;;;;;;11.70;5.90;;;;;;;5.45;81.08;98074.97;5096684;28;20068;-70
2022/04/07 01:59:55;;;;;;;9.90;5.45;;;;;;;5.68;80.96;98065.53;5096572;28;20040;-70
2022/04/07 02:02:24;;;;;;;7.05;4.13;;;;;;;5.43;80.69;98068.22;5096649;28;20040;-73
2022/04/07 02:04:54;;;;;;;11.60;6.30;;;;;;;5.52;81.41;98066.50;5096202;28;20105;-70
2022/04/07 02:07:28;;;;;;;12.75;5.40;;;;;;;5.52;80.76;98071.56;5096314;28;20048;-70
2022/04/07 02:09:59;;;;;;;10.25;6.10;;;;;;;5.39;81.67;98071.63;5096100;28;20040;-70
2022/04/07 02:12:29;;;;;;;12.60;7.60;;;;;;;5.47;81.70;98053.03;5095988;28;20101;-70
2022/04/07 02:14:59;;;;;;;;;;;;;;;5.47;82.05;98053.84;5096768;28;20504;-70
2022/04/07 02:17:28;;;;;;;;;;;;;;;5.36;81.35;98070.81;5096406;28;19920;-69
2022/04/07 02:19:57;;;;;;;;;;;;;;;5.51;82.33;98080.00;5096485;28;19943;-70
2022/04/07 02:22:28;;;;;;;;;;;;;;;5.68;82.28;98073.13;5096287;28;19927;-70
2022/04/07 02:25:00;;;;;;;;;;;;;;;5.62;81.81;98074.00;5097154;28;19934;-70
2022/04/07 02:27:34;;;;;;;;;;;;;;;5.46;81.77;98085.09;5096189;28;20011;-69
2022/04/07 02:30:04;;;;;;;;;;;;;;;5.25;81.59;98075.94;5096023;28;19920;-70
2022/04/07 02:32:32;;;;;;;;;;;;;;;5.38;81.87;98072.47;5096294;28;20270;-69
2022/04/07 02:35:01;;;;;;;;;;;;;;;5.30;81.95;98075.91;5095994;28;19966;-70
2022/04/07 02:37:30;;;;;;;;;;;;;;;5.26;82.12;98072.53;5095935;28;19931;-69
2022/04/07 02:39:57;;;;;;;;;;;;;;;5.49;82.90;98081.69;5096098;28;20265;-70
2022/04/07 02:42:27;;;;;;;;;;;;;;;5.42;82.09;98073.31;5096226;28;19927;-70
2022/04/07 02:44:56;;;;;;;;;;;;;;;5.32;82.18;98074.22;5096139;28;19920;-71
2022/04/07 02:47:30;;;;;;;;;;;;;;;5.48;82.70;98072.41;5095797;28;19934;-70
2022/04/07 02:49:59;;;;;;;;;;;;;;;5.55;82.48;98074.91;5095772;28;19969;-69
2022/04/07 02:52:28;;;;;;;;;;;;;;;5.53;82.57;98063.09;5095669;28;19920;-70
2022/04/07 02:54:57;;;;;;;;;;;;;;;5.60;82.57;98059.69;5095524;28;19926;-70
2022/04/07 02:57:30;;;;;;;;;;;;;;;5.65;82.52;98051.22;5095917;28;19920;-70
2022/04/07 02:59:59;;;;;;;;;;;;;;;5.66;82.38;98054.59;5095510;28;19919;-70
2022/04/07 03:02:28;;;;;;;;;;;;;;;5.83;82.68;98045.19;5095444;28;19965;-71
2022/04/07 03:04:57;;;;;;;;;;;;;;;6.11;82.74;98033.13;5095593;28;19919;-71
2022/04/07 03:07:25;;;;;;;;;;;;;;;6.02;82.09;98034.06;5095907;28;20273;-70
2022/04/07 03:09:54;;;;;;;;;;;;;;;5.99;81.99;98029.03;5095325;28;20011;-70
2022/04/07 03:12:23;;;;;;;;;;;;;;;6.08;82.30;98029.78;5095235;28;19920;-71
2022/04/07 03:14:53;;;;;;;;;;;;;;;6.09;82.36;98025.56;5095149;28;19920;-69
2022/04/07 03:17:21;;;;;;;;;;;;;;;5.97;82.17;98023.94;5095214;28;19970;-70
2022/04/07 03:19:50;;;;;;;;;;;;;;;6.07;82.06;98032.31;5095009;28;19923;-70
2022/04/07 03:22:19;;;;;;;;;;;;;;;5.98;82.00;98029.88;5094880;28;19920;-70
2022/04/07 03:24:48;;;;;;;;;;;;;;;5.95;81.66;98022.31;5094959;28;19920;-71
2022/04/07 03:27:17;;;;;;;;;;;;;;;5.83;81.90;98020.69;5094954;28;20389;-71
2022/04/07 03:29:45;;;;;;;;;;;;;;;5.83;82.04;98007.22;5095210;28;20332;-71
2022/04/07 03:32:15;;;;;;;;;;;;;;;5.80;82.38;98005.53;5094876;28;19920;-70
2022/04/07 03:34:44;;;;;;;;;;;;;;;5.85;82.22;97997.94;5094670;28;19920;-70
2022/04/07 03:37:14;;;;;;;;;;;;;;;5.61;81.84;98008.25;5095057;28;19942;-70
2022/04/07 03:39:43;;;;;;;;;;;;;;;5.62;82.06;98004.84;5095049;28;19970;-71
2022/04/07 03:42:12;;;;;;;;;;;;;;;5.57;82.14;98006.56;5093852;28;19924;-70
2022/04/07 03:44:40;;;;;;;;;;;;;;;5.54;81.64;98011.66;5094640;28;19924;-70
2022/04/07 03:47:09;;;;;;;;;;;;;;;5.65;82.38;98012.41;5094663;28;19920;-70
2022/04/07 03:49:39;;;;;;;;;;;;;;;5.63;82.53;98009.06;5094537;28;20289;-69
2022/04/07 03:52:08;;;;;;;;;;;;;;;5.71;82.44;98007.31;5094971;28;19927;-71
2022/04/07 03:54:37;;;;;;;;;;;;;;;5.67;82.14;98005.63;5094489;28;19924;-71
2022/04/07 03:57:06;;;;;;;;;;;;;;;5.65;82.01;98017.47;5094711;28;19920;-70
2022/04/07 03:59:39;;;;;;;;;;;;;;;5.53;82.04;98017.56;5094698;28;20254;-70
2022/04/07 04:02:08;;;;;;;;;;;;;;;5.56;81.99;98009.97;5094742;28;20358;-71
2022/04/07 04:04:37;;;;;;;;;;;;;;;5.64;82.16;98015.81;5094633;28;20370;-70
2022/04/07 04:07:07;;;;;;;;;;;;;;;5.64;82.14;98016.63;5094184;28;19920;-70
2022/04/07 04:09:36;;;;;;;;;;;;;;;5.63;82.12;98009.06;5094347;28;19920;-71
2022/04/07 04:12:05;;;;;;;;;;;;;;;5.63;81.98;97998.94;5094321;28;20280;-71
2022/04/07 04:14:34;;;;;;;;;;;;;;;5.73;82.42;98000.53;5094635;28;19920;-71
2022/04/07 04:17:02;;;;;;;;;;;;;;;5.85;82.34;98006.38;5094105;28;19924;-70
2022/04/07 04:19:33;;;;;;;;;;;;;;;5.82;82.08;98005.53;5094206;28;19920;-70
2022/04/07 04:22:01;;;;;;;;;;;;;;;5.85;82.34;98006.38;5094027;28;19927;-69
2022/04/07 04:24:31;;;;;;;;;;;;;;;6.07;82.11;98001.91;5094381;28;20262;-71
2022/04/07 04:27:01;;;;;;;;;;;;;;;6.17;81.25;97992.56;5094414;28;19920;-70
2022/04/07 04:29:30;;;;;;;;;;;;;;;6.29;81.37;97988.19;5094425;28;19920;-70
2022/04/07 04:31:58;;;;;;;;;;;;;;;6.11;81.14;97993.47;5094322;28;19928;-70
2022/04/07 04:34:27;;;;;;;;;;;;;;;6.01;81.00;98002.00;5093934;28;19920;-71
2022/04/07 04:36:56;;;;;;;;;;;;;;;6.20;81.38;98012.78;5093867;28;19952;-71
2022/04/07 04:39:25;;;;;;;;;;;;;;;6.22;81.40;98016.97;5094249;28;19920;-71
2022/04/07 04:41:55;;;;;;;;;;;;;;;6.39;80.99;98014.25;5094258;28;19960;-71
2022/04/07 04:44:24;;;;;;;;;;;;;;;6.33;81.10;98010.09;5093966;28;19927;-70
2022/04/07 04:46:53;;;;;;;;;;;;;;;6.41;81.26;98007.47;5094225;28;19924;-70
2022/04/07 04:49:22;;;;;;;;;;;;;;;6.49;80.98;97995.56;5093735;28;19920;-70
2022/04/07 04:51:50;;;;;;;;;;;;;;;6.59;80.90;97992.91;5093771;28;19930;-70
2022/04/07 04:54:19;;;;;;;;;;;;;;;6.52;81.16;97986.25;5096925;28;19947;-71
2022/04/07 04:56:47;;;;;;;;;;;;;;;6.52;80.87;97981.16;5098124;28;20285;-70
2022/04/07 04:59:17;;;;;;;;;;;;;;;6.60;80.32;97983.59;5098111;28;19969;-70
2022/04/07 05:01:46;;;;;;;;;;;;;;;6.69;80.77;97994.44;5097737;28;19966;-71
2022/04/07 05:04:15;;;;;;;;;;;;;;;6.85;80.22;97994.25;5097803;28;19924;-71
2022/04/07 05:06:44;;;;;;;;;;;;;;;6.87;80.09;98001.00;5098108;28;20040;-71
2022/04/07 05:09:12;;;;;;;;;;;;;;;6.98;79.29;98011.00;5097456;28;19920;-71
2022/04/07 05:11:41;;;;;;;;;;;;;;;7.09;79.07;98019.28;5097556;28;19924;-71
2022/04/07 05:14:09;;;;;;;;;;;;;;;7.04;79.39;98021.03;5097574;28;19926;-71
2022/04/07 05:16:39;;;;;;;;;;;;;;;7.10;78.89;98016.72;5097901;28;19965;-71
2022/04/07 05:19:08;;;;;;;;;;;;;;;7.16;79.50;98020.88;5079787;28;19965;-70
2022/04/07 05:21:37;;;;;;;;;;;;;;;7.15;78.68;98014.16;5097107;28;19920;-70
2022/04/07 05:24:06;;;;;;;;;;;;;;;7.30;78.94;98022.38;5097741;28;19920;-70
2022/04/07 05:26:34;;;;;;;;;;;;;;;7.43;78.97;98018.81;5097317;28;19920;-71
2022/04/07 05:29:04;;;;;;;;;;;;;;;7.52;79.18;98022.88;5097217;28;19923;-70
2022/04/07 05:31:33;;;;;;;;;;;;;;;7.78;79.04;98027.53;5097287;28;19926;-71
2022/04/07 05:34:03;;;;;;;;;;;;;;;8.00;78.18;98027.16;5097201;28;19959;-70
2022/04/07 05:36:32;;;;;;;;;;;;;;;8.34;78.06;98034.22;5097294;28;19972;-70
2022/04/07 05:39:00;;;;;;;;;;;;;;;8.44;78.45;98040.81;5097023;28;19926;-71
2022/04/07 05:41:29;;;;;;;;;;;;;;;8.55;78.59;98036.34;5096967;28;19920;-70
2022/04/07 05:43:57;;;;;;;;;;;;;;;8.88;77.43;98048.41;5097008;28;19966;-71
2022/04/07 05:46:26;;;;;;;;;;;;;;;9.07;77.37;98049.69;5096891;28;19920;-70
2022/04/07 05:48:57;;;;;;;;;;;;;;;8.93;75.33;98038.13;5096863;28;19921;-70
2022/04/07 05:51:27;;;;;;;;;;;;;;;8.65;76.41;98036.16;5097422;28;19920;-70
2022/04/07 05:53:56;;;;;;;;;;;;;;;8.85;76.20;98035.75;5096813;28;20391;-71
2022/04/07 05:56:25;;;;;;;;;;;;;;;9.01;76.22;98036.28;5096745;28;19946;-70
2022/04/07 05:58:54;;;;;;;;;;;;;;;8.97;75.71;98038.06;5096670;28;19920;-70
2022/04/07 06:01:30;;;;;;;;;;;;;;;8.95;76.28;98038.97;5096683;28;19920;-71
2022/04/07 06:03:59;;;;;;;;;;;;;;;9.10;75.96;98044.53;5096433;28;19959;-71
2022/04/07 06:06:29;;;;;;;;;;;;;;;9.41;75.32;98050.66;5096586;28;19932;-70
2022/04/07 06:08:58;;;;;;;;;;;;;;;9.63;75.56;98047.59;5096916;28;19919;-70
2022/04/07 06:11:26;;;;;;;;;;;;;;;10.06;75.45;98048.25;5096665;28;20281;-70
2022/04/07 06:13:55;;;;;;;;;;;;;;;10.14;73.17;98046.38;5096378;28;19989;-70
2022/04/07 06:16:23;;;;;;;;;;;;;;;9.80;75.03;98043.78;5096744;28;19926;-70
2022/04/07 06:18:52;;;;;;;;;;;;;;;9.51;75.68;98047.88;5096341;28;20010;-71
2022/04/07 06:21:23;;;;;;;;;;;;;;;9.18;76.37;98047.78;5096341;28;19920;-70
2022/04/07 06:23:53;;;;;;;;;;;;;;;9.12;77.42;98042.81;5078223;28;19969;-71
2022/04/07 06:26:22;;;;;;;;;;;;;;;8.96;75.45;98040.63;5096200;28;19920;-70
2022/04/07 06:28:50;;;;;;;;;;;;;;;8.97;75.83;98037.22;5096474;28;19981;-69
2022/04/07 06:31:19;;;;;;;;;;;;;;;9.04;75.54;98039.59;5096036;28;19927;-71
2022/04/07 06:33:47;;;;;;;;;;;;;;;9.33;75.51;98032.16;5102942;28;19924;-71
2022/04/07 06:36:34;;;;;;;;;;;;;;;9.71;74.22;98027.91;5075542;28;19926;-71
2022/04/07 06:39:04;;;;;;;;;;;;;;;9.67;73.94;98024.56;5075760;28;20325;-70
2022/04/07 06:41:34;;;;;;;;;;;;;;;9.83;73.72;98022.50;5091714;28;19924;-71
2022/04/07 06:44:02;;;;;;;;;;;;;;;9.68;73.07;98022.88;5095704;28;19920;-70
2022/04/07 06:46:32;;;;;;;;;;;;;;;9.95;73.33;98012.00;5095619;28;19971;-70
2022/04/07 06:49:01;;;;;;;;;;;;;;;10.04;71.70;98011.78;5075850;28;19921;-70
2022/04/07 06:51:30;;;;;;;;;;;;;;;9.95;71.99;98014.56;5098458;28;19924;-70
2022/04/07 06:53:59;;;;;;;;;;;;;;;9.98;71.79;98006.84;5116291;28;20430;-70
2022/04/07 06:56:29;;;;;;;;;;;;;;;10.21;71.24;98014.75;5116013;28;20384;-70
2022/04/07 06:58:57;;;;;;;;;;;;;;;10.49;71.02;98015.69;5116320;28;19919;-70
2022/04/07 07:01:29;;;;;;;;;;;;;;;10.50;70.80;98012.28;5115706;28;19920;-71
2022/04/07 07:04:02;;;;;;;;;;;;;;;10.62;70.61;98017.03;5116092;28;19954;-71
2022/04/07 07:06:31;;;;;;;;;;;;;;;10.56;70.19;98022.28;5115913;28;19945;-71
2022/04/07 07:09:00;;;;;;;;;;;;;;;10.65;70.86;98016.13;5115680;28;19920;-70
2022/04/07 07:11:30;;;;;;;;;;;;;;;10.61;70.24;98014.50;5098143;28;19965;-70
2022/04/07 07:13:58;;;;;;;;;;;;;;;10.92;70.58;98029.81;5115569;28;19919;-70
2022/04/07 07:16:28;;;;;;;;;;;;;;;11.17;69.96;98021.41;5115503;28;19958;-70
2022/04/07 07:18:56;;;;;;;;;;;;;;;11.21;69.71;98022.13;5115455;28;19919;-70
2022/04/07 07:21:25;;;;;;;;;;;;;;;11.44;69.42;98017.97;5115202;28;19920;-70
2022/04/07 07:23:54;;;;;;;;;;;;;;;11.54;69.20;98021.09;5115176;28;19924;-69
2022/04/07 07:26:22;;;;;;;;;;;;;;;11.83;68.86;98026.16;5115824;28;19920;-70
2022/04/07 07:28:52;;;;;;;;;;;;;;;12.12;67.47;98029.50;5115295;28;19958;-69
2022/04/07 07:31:21;;;;;;;;;;;;;;;12.49;67.70;98024.78;5093859;28;20385;-70
2022/04/07 07:33:50;;;;;;;;;;;;;;;12.44;66.91;98021.53;5076896;28;20014;-70
2022/04/07 07:36:18;;;;;;;;;;;;;;;12.45;66.71;98018.09;5074836;28;19943;-70
2022/04/07 07:38:47;;;;;;;;;;;;;;;12.30;65.34;98021.19;5074517;28;20397;-69
2022/04/07 07:41:15;;;;;;;;;;;;;;;12.29;65.79;98024.63;5074751;28;19978;-70
2022/04/07 07:43:44;;;;;;;;;;;;;;;12.36;65.39;98029.47;5074254;28;19970;-69
2022/04/07 07:46:14;;;;;;;;;;;;;;;12.41;65.07;98026.75;5074525;28;19960;-70
2022/04/07 07:48:43;;;;;;;;;;;;;;;12.44;65.33;98022.38;5074310;28;20018;-70
2022/04/07 07:51:12;;;;;;;;;;;;;;;12.37;65.09;98025.19;5074240;28;19966;-70
2022/04/07 07:53:44;;;;;;;;;;;;;;;12.21;65.23;98021.50;5074545;28;20356;-70
2022/04/07 07:56:13;;;;;;;;;;;;;;;12.33;65.26;98024.50;5074544;28;19990;-70
2022/04/07 07:58:41;;;;;;;;;;;;;;;12.16;65.36;98025.94;5074451;28;19966;-70
2022/04/07 08:01:10;;;;;;;;;;;;;;;12.03;65.99;98022.94;5074658;28;19924;-69
2022/04/07 08:03:40;;;;;;;;;;;;;;;11.95;66.46;98022.34;5071528;28;19925;-70
2022/04/07 08:06:09;;;;;;;;;;;;;;;12.14;66.66;98030.28;5097156;28;19974;-70
2022/04/07 08:08:37;;;;;;;;;;;;;;;12.27;66.86;98028.94;5080713;28;20336;-70
2022/04/07 08:11:11;;;;;;;;;;;;;;;12.32;67.13;98019.41;5072951;28;20007;-71
2022/04/07 08:13:40;;;;;;;;;;;;;;;12.21;68.05;98021.50;5074357;28;20267;-70
2022/04/07 08:16:10;;;;;;;;;;;;;;;12.13;69.03;98021.75;5073945;28;20003;-70
2022/04/07 08:18:40;;;;;;;;;;;;;;;12.08;68.67;98024.47;5073998;28;20366;-70
2022/04/07 08:21:08;;;;;;;;;;;;;;;12.12;68.76;98032.03;5073886;28;19967;-71
2022/04/07 08:23:37;;;;;;;;;;;;;;;12.21;68.92;98036.84;5074042;28;20017;-70
2022/04/07 08:26:06;;;;;;;;;;;;;;;12.03;70.06;98030.63;5074199;28;20274;-71
2022/04/07 08:28:34;;;;;;;;;;;;;;;12.01;70.65;98033.22;5073255;28;20021;-71
2022/04/07 08:31:03;;;;;;;;;;;;;;;11.92;71.34;98033.53;5078528;28;20389;-70
2022/04/07 08:33:31;;;;;;;;;;;;;;;11.95;71.37;98033.41;5073721;28;19999;-71
2022/04/07 08:36:02;;;;;;;;;;;;;;;12.16;71.12;98041.28;5103349;28;19988;-71
2022/04/07 08:38:31;;;;;;;;;;;;;;;12.20;70.90;98040.28;5106873;28;19920;-70
2022/04/07 08:41:00;;;;;;;;;;;;;;;12.30;71.29;98039.09;5093837;28;19920;-70
2022/04/07 08:43:29;;;;;;;;;;;;;;;12.27;71.61;98032.34;5091358;28;19920;-71
2022/04/07 08:45:58;;;;;;;;;;;;;;;12.25;71.32;98028.16;5073714;28;19924;-71
2022/04/07 08:48:29;;;;;;;;;;;;;;;12.15;71.26;98024.25;5073999;28;19982;-70
2022/04/07 08:50:57;;;;;;;;;;;;;;;12.08;71.70;98018.50;5073647;28;19927;-71
2022/04/07 08:53:28;;;;;;;;;;;;;;;12.03;72.15;98022.94;5023054;28;20333;-71
2022/04/07 08:55:58;;;;;;;;;;;;;;;12.07;72.48;98015.13;5073970;28;20247;-70
2022/04/07 08:58:27;;;;;;;;;;;;;;;12.16;73.14;98020.81;5073558;28;19920;-70
2022/04/07 09:00:56;;;;;;;;;;;;;;;12.23;73.15;98024.84;5095923;28;19919;-71
2022/04/07 09:03:25;;;;;;;;;;;;;;;12.18;74.58;98024.16;5113949;28;19926;-70
2022/04/07 09:05:54;;;;;;;;;;;;;;;12.23;74.75;98024.84;5094299;28;19968;-69
2022/04/07 09:08:31;;;;;;;;;;;;;;;12.30;74.87;98019.47;5091393;28;19927;-71
2022/04/07 09:11:01;;;;;;;;;;;;;;;12.28;74.63;98028.91;5075382;28;19966;-70
2022/04/07 09:13:30;;;;;;;;;;;;;;;12.41;75.35;98024.19;5086193;28;19920;-71
2022/04/07 09:16:00;;;;;;;;;;;;;;;12.62;74.91;98020.91;5092578;28;19927;-71
2022/04/07 09:18:29;;;;;;;;;;;;;;;12.97;74.22;98017.06;5100096;28;19973;-70
2022/04/07 09:20:57;;;;;;;;;;;;;;;13.25;72.78;98008.31;5081981;28;19928;-69
2022/04/07 09:23:26;;;;;;;;;;;;;;;13.53;71.95;98007.25;5083075;28;19927;-71
2022/04/07 09:25:56;;;;;;;;;;;;;;;13.72;70.26;98008.19;5093385;28;19920;-70
2022/04/07 09:28:25;;;;;;;;;;;;;;;13.80;69.54;98003.56;5092654;28;19920;-71
2022/04/07 09:30:54;;;;;;;;;;;;;;;13.77;68.99;97996.81;5085874;28;19957;-70
2022/04/07 09:33:23;;;;;;;;;;;;;;;13.79;69.48;97989.09;5068295;28;20460;-70
2022/04/07 09:35:59;;;;;;;;;;;;;;;13.91;69.31;97988.59;5106214;28;20376;-70
2022/04/07 09:38:29;;;;;;;;;;;;;;;14.03;68.80;97993.22;5099334;28;19923;-71
2022/04/07 09:41:05;;;;;;;;;;;;;;;14.08;68.24;97997.22;5089103;28;19958;-71
2022/04/07 09:43:43;;;;;;;;;;;;;;;14.21;67.99;97991.59;5076737;28;19974;-71
2022/04/07 09:46:12;;;;;;;;;;;;;;;14.54;67.35;97983.31;5081387;28;19921;-71
2022/04/07 09:48:41;;;;;;;;;;;;;;;14.80;67.14;97991.59;5083611;28;19956;-71
2022/04/07 09:51:11;;;;;;;;;;;;;;;14.85;66.08;97989.66;5076918;28;20290;-70
2022/04/07 09:53:41;;;;;;;;;;;;;;;14.86;66.07;97981.03;5094405;28;19920;-71
2022/04/07 09:56:18;;;;;;;;;;;;;;;14.99;66.35;97987.31;5083946;28;19925;-70
2022/04/07 09:58:47;;;;;;;;;;;;;;;14.96;65.44;97984.88;5082178;28;20006;-70
2022/04/07 10:01:16;;;;;;;;;;;;;;;14.99;65.27;97982.16;5076353;28;20333;-70
2022/04/07 10:03:47;;;;;;;;;;;;;;;15.07;65.00;97972.38;5082379;28;19928;-70
2022/04/07 10:06:16;;;;;;;;;;;;;;;15.29;64.47;97967.88;5092975;28;19920;-70
2022/04/07 10:08:47;;;;;;;;;;;;;;;15.40;64.38;97957.94;5094605;28;19920;-69
2022/04/07 10:11:18;;;;;;;;;;;;;;;16.02;63.11;97953.16;5105415;28;19931;-70
2022/04/07 10:13:53;;;;;;;;;;;;;;;16.18;61.63;97957.50;5117403;28;20357;-70
2022/04/07 10:16:42;;;;;;;;;;;;;;;16.14;61.62;97943.97;5102871;28;19998;-68
2022/04/07 10:19:12;;;;;;;;;;;;;;;16.00;60.47;97936.94;5085025;28;19964;-71
2022/04/07 10:21:48;;;;;;;;;;;;;;;15.89;60.06;97936.66;5075930;28;19927;-70
2022/04/07 10:24:30;;;;;;;;;;;;;;;16.24;60.20;97936.63;5102080;28;20018;-70
2022/04/07 10:27:23;;;;;;;;;;;;;;;17.38;58.41;97935.56;5102258;28;19920;-70
2022/04/07 10:30:02;;;;;;;;;;;;;;;17.23;59.61;97931.25;5084969;28;19921;-70
2022/04/07 10:32:38;;;;;;;;;;;;;;;18.56;54.72;97933.81;5103494;28;19920;-71
2022/04/07 10:35:07;;;;;;;;;;;;;;;18.81;51.63;97934.88;5096465;28;20030;-70
2022/04/07 10:37:47;;;;;;;;;;;;;;;19.19;52.58;97925.56;5096361;28;19931;-71
2022/04/07 10:40:26;;;;;;;;;;;;;;;19.73;51.34;97924.59;5096013;28;19928;-71
2022/04/07 10:43:09;;;;;;;;;;;;;;;19.24;49.66;97911.38;5096054;28;19942;-72
2022/04/07 10:45:39;;;;;;;;;;;;;;;18.97;49.23;97913.16;5095610;28;19920;-69
2022/04/07 10:48:20;;;;;;;;;;;;;;;19.47;50.49;97904.78;5095728;28;19920;-71
2022/04/07 10:50:51;;;;;;;;;;;;;;;19.78;49.69;97914.78;5084793;28;19965;-69
2022/04/07 10:53:20;;;;;;;;;;;;;;;18.92;52.98;97904.00;5096182;28;19920;-69
2022/04/07 10:55:55;;;;;;;;;;;;;;;18.50;53.61;97903.16;5091938;28;19958;-71
2022/04/07 10:58:35;;;;;;;;;;;;;;;17.95;53.68;97899.59;5075412;28;19974;-69
2022/04/07 11:01:05;;;;;;;;;;;;;;;17.86;53.50;97887.25;5075282;28;19920;-70
2022/04/07 11:03:35;;;;;;;;;;;;;;;17.41;53.53;97877.81;5075023;28;19925;-69
2022/04/07 11:06:06;;;;;;;;;;;;;;;17.37;53.59;97882.31;5075150;28;20329;-71
2022/04/07 11:08:35;;;;;;;;;;;;;;;19.80;50.06;97881.00;5075059;28;19921;-69
2022/04/07 11:11:03;;;;;;;;;;;;;;;20.46;48.13;97883.41;5074955;28;19926;-71
2022/04/07 11:13:43;;;;;;;;;;;;;;;20.12;47.46;97886.63;5110607;28;19972;-70
2022/04/07 11:16:19;;;;;;;;;;;;;;;19.48;47.53;97880.56;5104289;28;20432;-70
2022/04/07 11:19:00;;;;;;;;;;;;;;;20.15;47.94;97873.47;5095584;28;19928;-70
2022/04/07 11:21:43;;;;;;;;;;;;;;;20.01;47.51;97871.81;5094706;28;20335;-71
2022/04/07 11:24:16;;;;;;;;;;;;;;;20.30;47.04;97870.66;5096351;28;19920;-70
2022/04/07 11:26:45;;;;;;;;;;;;;;;20.28;48.06;97869.13;5095463;28;19920;-70
2022/04/07 11:29:14;;;;;;;;;;;;;;;20.62;46.23;97858.91;5094842;28;19919;-71
2022/04/07 11:31:46;;;;;;;;;;;;;;;20.91;47.02;97851.66;5094590;28;19942;-70
2022/04/07 11:34:25;;;;;;;;;;;;;;;20.30;47.69;97859.50;5082932;28;19963;-68
2022/04/07 11:36:54;;;;;;;;;;;;;;;20.13;48.73;97854.59;5086365;28;19924;-71
2022/04/07 11:39:24;;;;;;;;;;;;;;;20.46;48.04;97852.31;5074405;28;20392;-70
2022/04/07 11:41:54;;;;;;;;;;;;;;;20.56;47.37;97840.38;5099456;28;19920;-69
2022/04/07 11:44:25;;;;;;;;;;;;;;;20.24;47.51;97841.78;5085721;28;20392;-70
2022/04/07 11:46:55;;;;;;;;;;;;;;;20.50;46.61;97840.78;5094758;28;20353;-70
2022/04/07 11:49:24;;;;;;;;;;;;;;;20.70;45.38;97835.88;5089286;28;19919;-71
2022/04/07 11:51:53;;;;;;;;;;;;;;;20.93;46.52;97831.59;5096331;28;19920;-69
2022/04/07 11:54:22;;;;;;;;;;;;;;;20.87;46.25;97826.03;5080889;28;19920;-71
2022/04/07 11:56:52;;;;;;;;;;;;;;;20.29;46.74;97829.31;5074070;28;19920;-71
2022/04/07 11:59:21;;;;;;;;;;;;;;;21.31;46.80;97821.88;5074300;28;19928;-71
2022/04/07 12:01:50;;;;;;;;;;;;;;;21.26;45.33;97824.00;5074008;28;19920;-71
2022/04/07 12:04:20;;;;;;;;;;;;;;;20.04;47.80;97830.97;5073628;28;19973;-68
2022/04/07 12:06:49;;;;;;;;;;;;;;;20.36;48.58;97828.81;5074265;28;20431;-71
2022/04/07 12:09:18;;;;;;;;;;;;;;;21.45;44.92;97817.47;5074092;28;19920;-71
2022/04/07 12:11:47;;;;;;;;;;;;;;;21.74;42.66;97813.50;5074086;28;19931;-70
2022/04/07 12:14:16;;;;;;;;;;;;;;;21.44;42.29;97813.19;5073980;28;19920;-69
2022/04/07 12:16:46;;;;;;;;;;;;;;;21.89;42.99;97814.94;5074397;28;20271;-70
2022/04/07 12:19:17;;;;;;;;;;;;;;;21.56;41.96;97804.50;5073940;28;19921;-70
2022/04/07 12:21:54;;;;;;;;;;;;;;;21.86;42.10;97797.00;5073603;28;19955;-71
2022/04/07 12:24:23;;;;;;;;;;;;;;;21.66;39.88;97795.06;5108239;28;19936;-71
2022/04/07 12:26:52;;;;;;;;;;;;;;;21.44;42.85;97795.03;5093483;28;19955;-69
2022/04/07 12:29:22;;;;;;;;;;;;;;;21.27;42.09;97784.13;5090031;28;19943;-70
2022/04/07 12:32:00;;;;;;;;;;;;;;;20.97;42.26;97781.16;5074024;28;20010;-70
2022/04/07 12:34:29;;;;;;;;;;;;;;;21.01;42.96;97777.41;5073861;28;19921;-70
2022/04/07 12:36:59;;;;;;;;;;;;;;;20.54;41.47;97767.03;5085877;28;19920;-71
2022/04/07 12:39:34;;;;;;;;;;;;;;;21.07;40.96;97758.81;5093926;28;20373;-71
2022/04/07 12:42:05;;;;;;;;;;;;;;;21.26;42.75;97751.34;5093565;28;20366;-69
2022/04/07 12:44:35;;;;;;;;;;;;;;;21.21;39.94;97743.06;5093340;28;19920;-70
2022/04/07 12:47:11;;;;;;;;;;;;;;;20.66;43.86;97745.44;5093804;28;19958;-70
2022/04/07 12:49:40;;;;;;;;;;;;;;;18.84;47.15;97751.97;5093825;28;19924;-71
2022/04/07 12:52:14;;;;;;;;;;;;;;;18.89;48.04;97743.91;5093854;28;19924;-70
2022/04/07 12:54:56;;;;;;;;;;;;;;;19.03;48.92;97741.25;5090978;28;19985;-70